Time;durP1;ratioP1;P1;durP2;ratioP2;P2;SDS_P1;SDS_P2;PMS_P1;PMS_P2;Temp;Humidity;BMP_temperature;BMP_pressure;BME280_temperature;BME280_humidity;BME280_pressure;Samples;Min_cycle;Max_cycle;Signal;HPM_P1;HPM_P2
2023/08/30 00:03:06;;;;;;;16.50;12.70;;;;;;;17.31;100.00;98416.68;432207;1268;140674;-61
2023/08/30 00:13:12;;;;;;;11.30;9.90;;;;;;;17.23;100.00;98413.66;431984;1265;139863;-63
2023/08/30 00:23:18;;;;;;;10.90;9.80;;;;;;;17.19;100.00;98398.89;432814;1265;140514;-61
2023/08/30 00:33:24;;;;;;;10.00;9.00;;;;;;;17.11;100.00;98381.01;432054;1269;139889;-62
2023/08/30 00:43:30;;;;;;;7.10;6.50;;;;;;;17.03;100.00;98382.25;431982;1268;142778;-61
2023/08/30 00:53:36;;;;;;;8.10;6.90;;;;;;;16.99;100.00;98378.66;431876;1267;141630;-61
2023/08/30 01:03:41;;;;;;;9.10;7.50;;;;;;;16.92;100.00;98366.68;431969;1269;139779;-63
2023/08/30 01:13:54;;;;;;;8.60;7.90;;;;;;;16.82;100.00;98351.95;432163;1268;139402;-62
2023/08/30 01:24:01;;;;;;;9.50;8.00;;;;;;;16.71;100.00;98351.04;432476;1268;139405;-63
2023/08/30 01:34:07;;;;;;;7.40;6.70;;;;;;;16.61;100.00;98350.03;432201;1270;139413;-62
2023/08/30 01:44:16;;;;;;;7.00;6.30;;;;;;;16.55;100.00;98335.13;431817;1268;139358;-63
2023/08/30 01:54:23;;;;;;;5.40;4.80;;;;;;;16.51;100.00;98334.65;432363;1265;139604;-62
2023/08/30 02:04:28;;;;;;;5.30;4.90;;;;;;;16.52;100.00;98338.61;432122;1268;140929;-62
2023/08/30 02:14:36;;;;;;;7.30;6.60;;;;;;;16.52;100.00;98337.20;432118;1269;139877;-62
2023/08/30 02:24:42;;;;;;;9.70;8.80;;;;;;;16.49;100.00;98330.42;432738;1265;140867;-61
2023/08/30 02:34:48;;;;;;;13.10;11.80;;;;;;;16.45;100.00;98333.52;432242;1265;139337;-61
2023/08/30 02:44:54;;;;;;;16.10;13.20;;;;;;;16.40;100.00;98317.34;432167;1267;140586;-62
2023/08/30 02:55:00;;;;;;;15.30;13.70;;;;;;;16.29;100.00;98309.54;431779;1270;139914;-61
2023/08/30 03:05:07;;;;;;;17.20;15.50;;;;;;;16.20;100.00;98318.05;432034;1268;139879;-62
2023/08/30 03:15:13;;;;;;;18.70;16.70;;;;;;;16.09;100.00;98332.45;432199;1269;141009;-62
2023/08/30 03:25:19;;;;;;;21.70;19.50;;;;;;;16.05;100.00;98328.41;432376;1268;141042;-61
2023/08/30 03:35:25;;;;;;;29.50;23.80;;;;;;;16.06;100.00;98328.17;431918;1268;139703;-63
2023/08/30 03:45:34;;;;;;;29.40;22.70;;;;;;;16.03;100.00;98335.55;432030;1268;141486;-63
2023/08/30 03:55:41;;;;;;;29.10;23.00;;;;;;;16.03;100.00;98331.68;432801;1269;141408;-62
2023/08/30 04:05:46;;;;;;;27.10;22.40;;;;;;;15.93;100.00;98333.95;432340;1268;139606;-63
2023/08/30 04:15:53;;;;;;;27.50;24.00;;;;;;;15.88;100.00;98339.39;431846;1268;139754;-62
2023/08/30 04:25:59;;;;;;;35.50;24.80;;;;;;;15.81;100.00;98345.89;431249;1267;140474;-63
2023/08/30 04:36:05;;;;;;;30.80;24.20;;;;;;;15.85;100.00;98338.34;431301;1268;140190;-66
2023/08/30 04:46:11;;;;;;;31.10;24.80;;;;;;;15.89;100.00;98338.27;433179;1270;140166;-67
2023/08/30 04:56:18;;;;;;;36.10;22.70;;;;;;;15.95;100.00;98335.27;431948;1268;140565;-65
2023/08/30 05:06:24;;;;;;;24.60;19.60;;;;;;;15.96;100.00;98327.41;432578;1268;141160;-65
2023/08/30 05:16:30;;;;;;;37.50;21.60;;;;;;;15.99;100.00;98325.38;432552;1269;141250;-65
2023/08/30 05:26:36;;;;;;;23.20;18.10;;;;;;;16.06;100.00;98328.67;431866;1270;140683;-65
2023/08/30 05:36:41;;;;;;;28.40;19.10;;;;;;;16.18;100.00;98334.99;432056;1268;140857;-66
2023/08/30 05:46:47;;;;;;;29.10;19.60;;;;;;;16.29;100.00;98328.57;431596;1266;141500;-66
2023/08/30 05:56:53;;;;;;;23.00;18.80;;;;;;;16.44;100.00;98324.09;432417;1268;140457;-64
2023/08/30 06:06:59;;;;;;;28.90;21.00;;;;;;;16.58;100.00;98334.27;432714;1269;141513;-62
2023/08/30 06:17:05;;;;;;;23.80;17.70;;;;;;;16.65;100.00;98344.98;432462;1267;141973;-59
2023/08/30 06:27:11;;;;;;;30.20;16.70;;;;;;;16.68;100.00;98353.02;431976;1267;142271;-62
2023/08/30 06:37:17;;;;;;;24.70;15.40;;;;;;;16.69;100.00;98359.96;432197;1266;140103;-63
2023/08/30 06:47:23;;;;;;;20.10;13.60;;;;;;;16.62;100.00;98370.71;432163;1268;141225;-61
2023/08/30 06:57:29;;;;;;;22.40;15.40;;;;;;;16.56;100.00;98377.98;432118;1270;141168;-61
2023/08/30 07:07:35;;;;;;;24.20;17.20;;;;;;;16.55;100.00;98380.75;432151;1268;140818;-67
2023/08/30 07:17:42;;;;;;;22.40;15.70;;;;;;;16.68;100.00;98386.36;432589;1268;139830;-64
2023/08/30 07:27:59;;;;;;;19.90;14.40;;;;;;;16.83;100.00;98399.63;433804;1268;139924;-63
2023/08/30 07:38:05;;;;;;;16.40;12.60;;;;;;;17.08;100.00;98398.70;432038;1268;140345;-63
2023/08/30 07:48:12;;;;;;;14.50;11.10;;;;;;;17.31;100.00;98396.52;431964;1269;141233;-63
2023/08/30 07:58:18;;;;;;;17.00;12.50;;;;;;;17.70;100.00;98393.27;432083;1269;141291;-69
2023/08/30 08:08:24;;;;;;;16.00;12.00;;;;;;;18.02;100.00;98400.40;432190;1270;140184;-69
2023/08/30 08:18:30;;;;;;;10.50;8.90;;;;;;;18.07;100.00;98400.83;431943;1267;139724;-68
2023/08/30 08:28:36;;;;;;;14.20;9.40;;;;;;;18.08;100.00;98411.30;431462;1265;140364;-69
2023/08/30 08:38:42;;;;;;;9.80;8.10;;;;;;;18.02;100.00;98413.75;431547;1267;139705;-70
2023/08/30 08:48:51;;;;;;;11.40;6.90;;;;;;;17.71;100.00;98415.96;432200;1268;139264;-69
2023/08/30 08:58:57;;;;;;;7.00;6.10;;;;;;;17.57;100.00;98425.84;432691;1269;140136;-69
2023/08/30 09:09:05;;;;;;;7.60;6.60;;;;;;;17.60;100.00;98424.08;432131;1267;139923;-69
2023/08/30 09:19:11;;;;;;;7.60;6.90;;;;;;;17.64;100.00;98421.01;432266;1269;140048;-68
2023/08/30 09:29:19;;;;;;;9.60;5.80;;;;;;;17.58;100.00;98422.86;432106;1270;139437;-68
2023/08/30 09:39:25;;;;;;;6.20;5.40;;;;;;;17.42;100.00;98429.12;432171;1269;140396;-69
2023/08/30 09:49:38;;;;;;;6.90;5.80;;;;;;;17.33;100.00;98432.56;432027;1269;139446;-68
2023/08/30 09:59:46;;;;;;;7.30;6.50;;;;;;;17.28;100.00;98438.41;432835;1270;141233;-69
2023/08/30 10:09:53;;;;;;;5.80;4.30;;;;;;;17.27;100.00;98441.33;432179;1269;140545;-68
2023/08/30 10:20:15;;;;;;;9.50;6.10;;;;;;;17.40;100.00;98445.91;431642;1269;139883;-69
2023/08/30 10:30:22;;;;;;;6.50;5.90;;;;;;;17.50;100.00;98449.42;432211;1269;139394;-68
2023/08/30 10:40:28;;;;;;;8.90;6.30;;;;;;;17.64;100.00;98443.26;432699;1270;139356;-68
2023/08/30 10:50:36;;;;;;;8.40;5.80;;;;;;;17.71;100.00;98450.67;432086;1270;140437;-69
2023/08/30 11:00:42;;;;;;;7.10;5.70;;;;;;;17.67;100.00;98454.83;436458;1267;139416;-69
2023/08/30 11:10:48;;;;;;;8.00;7.20;;;;;;;17.61;100.00;98454.43;431887;1267;139675;-68
2023/08/30 11:21:01;;;;;;;6.30;5.80;;;;;;;17.53;100.00;98459.70;431515;1270;141436;-67
2023/08/30 11:31:07;;;;;;;7.40;6.50;;;;;;;17.49;100.00;98465.65;433618;1269;140782;-69
2023/08/30 11:41:13;;;;;;;5.60;5.10;;;;;;;17.76;100.00;98459.80;431976;1268;139391;-69
2023/08/30 11:51:20;;;;;;;6.50;5.90;;;;;;;17.84;100.00;98459.07;432050;1265;139400;-70
2023/08/30 12:01:26;;;;;;;6.10;5.60;;;;;;;18.11;100.00;98445.64;432750;1270;145498;-69
2023/08/30 12:11:34;;;;;;;6.70;6.00;;;;;;;18.36;100.00;98450.80;432164;1269;139370;-69
2023/08/30 12:21:44;;;;;;;6.30;5.70;;;;;;;18.45;100.00;98444.13;432057;1270;140290;-69
2023/08/30 12:31:49;;;;;;;5.60;5.10;;;;;;;18.89;100.00;98434.23;432167;1269;139365;-67
2023/08/30 12:41:55;;;;;;;7.20;6.60;;;;;;;19.67;100.00;98414.06;432197;1267;140525;-68
2023/08/30 12:52:01;;;;;;;8.20;6.30;;;;;;;19.73;99.00;98411.42;432242;1270;139962;-68
2023/08/30 13:02:08;;;;;;;8.00;7.30;;;;;;;19.25;97.95;98416.02;432040;1269;139225;-68
2023/08/30 13:12:14;;;;;;;7.30;6.50;;;;;;;19.15;98.30;98421.83;432254;1269;139141;-69
2023/08/30 13:22:19;;;;;;;6.20;5.70;;;;;;;19.04;98.53;98419.36;431907;1270;140897;-69
2023/08/30 13:32:26;;;;;;;9.10;6.70;;;;;;;19.03;97.55;98427.16;432037;1269;139976;-69
2023/08/30 13:42:32;;;;;;;7.40;6.70;;;;;;;18.74;97.36;98426.96;432044;1270;140971;-60
2023/08/30 13:52:38;;;;;;;6.10;5.50;;;;;;;19.27;98.97;98424.88;431692;1270;139983;-60
2023/08/30 14:02:44;;;;;;;5.80;5.30;;;;;;;19.70;96.70;98433.11;431728;1266;139465;-69
2023/08/30 14:12:50;;;;;;;6.00;5.50;;;;;;;19.37;94.85;98433.50;432059;1269;140042;-61
2023/08/30 14:22:56;;;;;;;6.50;5.90;;;;;;;19.47;95.63;98424.10;431990;1269;139181;-60
2023/08/30 14:33:02;;;;;;;9.10;8.30;;;;;;;19.33;94.48;98419.15;432358;1269;139549;-59
2023/08/30 14:43:08;;;;;;;8.80;8.00;;;;;;;18.60;93.63;98438.61;432489;1267;139510;-65
2023/08/30 14:53:14;;;;;;;9.10;8.20;;;;;;;18.15;94.84;98430.71;432184;1265;139390;-59
2023/08/30 15:03:20;;;;;;;8.90;8.10;;;;;;;17.99;95.69;98440.48;432225;1265;139485;-61
2023/08/30 15:13:25;;;;;;;8.00;6.30;;;;;;;18.03;95.85;98447.29;432599;1270;139137;-62
2023/08/30 15:23:31;;;;;;;8.90;8.10;;;;;;;18.13;96.12;98453.00;432304;1269;139464;-61
2023/08/30 15:33:37;;;;;;;8.10;7.10;;;;;;;18.20;95.88;98464.79;432758;1266;140299;-62
2023/08/30 15:43:44;;;;;;;7.90;6.80;;;;;;;18.30;95.82;98481.32;433323;1266;139814;-63
2023/08/30 15:53:50;;;;;;;6.40;5.90;;;;;;;18.22;95.30;98499.84;432775;1267;140824;-62
2023/08/30 16:03:56;;;;;;;6.00;5.50;;;;;;;17.96;95.08;98502.71;432180;1269;140259;-64
2023/08/30 16:14:03;;;;;;;7.30;6.30;;;;;;;17.70;94.98;98510.93;432573;1265;140290;-66
2023/08/30 16:24:09;;;;;;;6.80;5.70;;;;;;;17.38;95.85;98501.73;432023;1265;140654;-65
2023/08/30 16:34:15;;;;;;;6.70;6.10;;;;;;;17.53;97.34;98504.67;431870;1268;139376;-65
2023/08/30 16:44:21;;;;;;;6.20;5.20;;;;;;;17.69;97.70;98505.00;431815;1265;140057;-66
2023/08/30 16:54:27;;;;;;;7.40;4.40;;;;;;;17.64;97.11;98501.27;431763;1265;139684;-66
2023/08/30 17:04:33;;;;;;;4.90;4.30;;;;;;;17.45;97.03;98503.58;431689;1268;139509;-67
2023/08/30 17:14:39;;;;;;;;;;;;;;;17.18;96.52;98498.54;431731;1265;139762;-65
2023/08/30 17:24:45;;;;;;;6.20;5.50;;;;;;;16.87;97.27;98486.13;431883;1265;126797;-66
2023/08/30 17:34:51;;;;;;;4.70;4.30;;;;;;;16.76;97.96;98475.59;432142;1265;139222;-66
2023/08/30 17:44:57;;;;;;;3.50;3.20;;;;;;;16.61;98.46;98481.10;431847;1267;139670;-66
2023/08/30 17:55:07;;;;;;;3.60;3.30;;;;;;;16.50;98.95;98481.73;431801;1269;139340;-66
2023/08/30 18:05:12;;;;;;;3.40;3.10;;;;;;;16.32;99.00;98484.34;431541;1266;139447;-66
2023/08/30 18:15:19;;;;;;;4.10;3.30;;;;;;;16.25;99.47;98480.95;431657;1267;140601;-66
2023/08/30 18:25:24;;;;;;;6.70;4.40;;;;;;;16.17;99.82;98490.52;431839;1266;139649;-66
2023/08/30 18:35:31;;;;;;;6.20;5.70;;;;;;;16.02;99.82;98498.17;431821;1268;140336;-67
2023/08/30 18:45:43;;;;;;;6.20;5.30;;;;;;;15.83;99.91;98505.30;432091;1267;139658;-66
2023/08/30 18:55:49;;;;;;;6.80;5.10;;;;;;;15.68;99.99;98511.70;432253;1267;141038;-66
2023/08/30 19:05:55;;;;;;;7.10;5.70;;;;;;;15.62;100.00;98512.53;431821;1269;141087;-67
2023/08/30 19:16:01;;;;;;;6.70;6.10;;;;;;;15.48;100.00;98519.36;431653;1270;140411;-67
2023/08/30 19:26:07;;;;;;;6.10;5.50;;;;;;;15.43;100.00;98522.95;431616;1267;139665;-66
2023/08/30 19:36:16;;;;;;;6.10;5.60;;;;;;;15.38;100.00;98522.61;431866;1269;139643;-64
2023/08/30 19:46:23;;;;;;;5.50;4.90;;;;;;;15.32;100.00;98520.66;432142;1265;140815;-66
2023/08/30 19:56:29;;;;;;;8.00;5.70;;;;;;;15.20;100.00;98517.08;432565;1269;140499;-67
2023/08/30 20:06:35;;;;;;;9.10;5.10;;;;;;;15.11;100.00;98522.16;433095;1265;139502;-66
2023/08/30 20:16:41;;;;;;;9.50;5.90;;;;;;;15.06;100.00;98526.92;432894;1265;142514;-67
2023/08/30 20:26:48;;;;;;;6.70;5.60;;;;;;;15.05;100.00;98531.80;432686;1270;139541;-66
2023/08/30 20:36:54;;;;;;;7.20;6.50;;;;;;;15.03;100.00;98544.34;433085;1265;141565;-66
2023/08/30 20:47:00;;;;;;;7.20;6.50;;;;;;;15.01;100.00;98553.48;432062;1265;140081;-66
2023/08/30 20:57:06;;;;;;;6.90;6.20;;;;;;;14.93;100.00;98564.29;432068;1265;141622;-66
2023/08/30 21:07:12;;;;;;;7.60;5.80;;;;;;;14.93;100.00;98569.83;432200;1265;139374;-66
2023/08/30 21:17:18;;;;;;;6.80;6.20;;;;;;;14.92;100.00;98583.80;432232;1265;139683;-67
2023/08/30 21:27:24;;;;;;;6.10;5.60;;;;;;;14.88;100.00;98586.80;432157;1270;140596;-66
2023/08/30 21:37:30;;;;;;;5.00;4.60;;;;;;;14.88;100.00;98592.34;432074;1269;139731;-65
2023/08/30 21:47:37;;;;;;;5.60;4.40;;;;;;;14.90;100.00;98596.67;432096;1265;139416;-67
2023/08/30 21:57:43;;;;;;;4.10;3.80;;;;;;;14.83;100.00;98589.60;432540;1265;140890;-67
2023/08/30 22:07:49;;;;;;;5.60;5.00;;;;;;;14.78;100.00;98594.11;432016;1267;139802;-66
2023/08/30 22:17:56;;;;;;;6.20;5.60;;;;;;;14.78;100.00;98593.05;432155;1267;139331;-66
2023/08/30 22:28:02;;;;;;;6.10;5.40;;;;;;;14.73;100.00;98585.97;432447;1265;141211;-67
2023/08/30 22:38:08;;;;;;;5.90;5.40;;;;;;;14.66;100.00;98582.73;431936;1265;140023;-67
2023/08/30 22:48:15;;;;;;;6.70;5.60;;;;;;;14.62;100.00;98581.05;432031;1267;140891;-66
2023/08/30 22:58:21;;;;;;;6.00;5.50;;;;;;;14.63;100.00;98587.98;432146;1268;140534;-67
2023/08/30 23:08:29;;;;;;;5.90;5.30;;;;;;;14.63;100.00;98583.23;431945;1267;142380;-66
2023/08/30 23:18:35;;;;;;;6.20;5.70;;;;;;;14.62;100.00;98586.63;432057;1265;139467;-67
2023/08/30 23:28:41;;;;;;;11.90;6.80;;;;;;;14.60;100.00;98587.21;432005;1265;140748;-67
2023/08/30 23:38:47;;;;;;;6.90;6.20;;;;;;;14.60;100.00;98586.99;432072;1265;141118;-68
2023/08/30 23:48:53;;;;;;;7.90;6.00;;;;;;;14.59;100.00;98586.19;432773;1265;139380;-67
2023/08/30 23:58:59;;;;;;;6.80;6.20;;;;;;;14.58;100.00;98586.87;432341;1268;182581;-67
